sensor_id;sensor_type;location;lat;lon;timestamp;P1;durP1;ratioP1;P2;durP2;ratioP2
37389;SDS011;39679;49.000;8.390;2022-10-17T00:04:40;3.47;;;1.95;;
37389;SDS011;39679;49.000;8.390;2022-10-17T00:09:41;4.15;;;2.17;;
37389;SDS011;39679;49.000;8.390;2022-10-17T00:14:42;2.78;;;1.92;;
37389;SDS011;39679;49.000;8.390;2022-10-17T00:19:43;3.70;;;1.90;;
37389;SDS011;39679;49.000;8.390;2022-10-17T00:24:43;3.78;;;2.28;;
37389;SDS011;39679;49.000;8.390;2022-10-17T00:29:47;3.33;;;1.70;;
37389;SDS011;39679;49.000;8.390;2022-10-17T00:34:48;3.97;;;2.38;;
37389;SDS011;39679;49.000;8.390;2022-10-17T00:39:48;2.38;;;1.80;;
37389;SDS011;39679;49.000;8.390;2022-10-17T00:49:49;2.42;;;1.95;;
37389;SDS011;39679;49.000;8.390;2022-10-17T00:54:59;3.42;;;1.95;;
37389;SDS011;39679;49.000;8.390;2022-10-17T01:00:03;3.63;;;2.33;;
37389;SDS011;39679;49.000;8.390;2022-10-17T01:05:07;4.03;;;2.20;;
37389;SDS011;39679;49.000;8.390;2022-10-17T01:10:08;3.78;;;2.10;;
37389;SDS011;39679;49.000;8.390;2022-10-17T01:25:54;2.80;;;1.90;;
37389;SDS011;39679;49.000;8.390;2022-10-17T01:31:12;3.08;;;2.03;;
37389;SDS011;39679;49.000;8.390;2022-10-17T01:41:26;3.20;;;1.88;;
37389;SDS011;39679;49.000;8.390;2022-10-17T01:46:32;2.40;;;1.83;;
37389;SDS011;39679;49.000;8.390;2022-10-17T01:51:39;4.00;;;2.28;;
37389;SDS011;39679;49.000;8.390;2022-10-17T01:56:45;3.40;;;1.88;;
37389;SDS011;39679;49.000;8.390;2022-10-17T02:01:51;2.78;;;1.85;;
37389;SDS011;39679;49.000;8.390;2022-10-17T02:06:54;2.85;;;2.00;;
37389;SDS011;39679;49.000;8.390;2022-10-17T02:11:59;4.88;;;2.00;;
37389;SDS011;39679;49.000;8.390;2022-10-17T02:27:59;2.92;;;2.10;;
37389;SDS011;39679;49.000;8.390;2022-10-17T02:33:17;2.90;;;1.75;;
37389;SDS011;39679;49.000;8.390;2022-10-17T02:38:24;3.28;;;2.05;;
37389;SDS011;39679;49.000;8.390;2022-10-17T02:43:28;3.10;;;1.88;;
37389;SDS011;39679;49.000;8.390;2022-10-17T02:48:30;3.08;;;1.80;;
37389;SDS011;39679;49.000;8.390;2022-10-17T02:53:40;2.03;;;1.27;;
37389;SDS011;39679;49.000;8.390;2022-10-17T02:58:49;3.88;;;1.88;;
37389;SDS011;39679;49.000;8.390;2022-10-17T03:04:03;2.97;;;1.90;;
37389;SDS011;39679;49.000;8.390;2022-10-17T03:09:04;1.85;;;1.60;;
37389;SDS011;39679;49.000;8.390;2022-10-17T03:14:05;2.38;;;1.85;;
37389;SDS011;39679;49.000;8.390;2022-10-17T03:19:05;3.47;;;1.50;;
37389;SDS011;39679;49.000;8.390;2022-10-17T03:24:06;2.72;;;1.80;;
37389;SDS011;39679;49.000;8.390;2022-10-17T03:29:06;2.70;;;1.65;;
37389;SDS011;39679;49.000;8.390;2022-10-17T03:34:06;2.67;;;1.67;;
37389;SDS011;39679;49.000;8.390;2022-10-17T03:39:07;2.65;;;1.52;;
37389;SDS011;39679;49.000;8.390;2022-10-17T03:44:07;2.00;;;1.60;;
37389;SDS011;39679;49.000;8.390;2022-10-17T03:49:08;1.45;;;1.35;;
37389;SDS011;39679;49.000;8.390;2022-10-17T03:54:08;3.55;;;1.80;;
37389;SDS011;39679;49.000;8.390;2022-10-17T03:59:11;2.67;;;1.75;;
37389;SDS011;39679;49.000;8.390;2022-10-17T04:04:12;2.08;;;1.42;;
37389;SDS011;39679;49.000;8.390;2022-10-17T04:09:13;1.73;;;1.40;;
37389;SDS011;39679;49.000;8.390;2022-10-17T04:14:13;2.15;;;1.52;;
37389;SDS011;39679;49.000;8.390;2022-10-17T04:19:14;2.42;;;1.50;;
37389;SDS011;39679;49.000;8.390;2022-10-17T04:24:14;2.08;;;1.73;;
37389;SDS011;39679;49.000;8.390;2022-10-17T04:29:14;2.22;;;1.73;;
37389;SDS011;39679;49.000;8.390;2022-10-17T04:34:15;2.35;;;1.60;;
37389;SDS011;39679;49.000;8.390;2022-10-17T04:39:15;2.80;;;1.52;;
37389;SDS011;39679;49.000;8.390;2022-10-17T04:44:15;2.50;;;1.60;;
37389;SDS011;39679;49.000;8.390;2022-10-17T04:49:16;2.10;;;1.63;;
37389;SDS011;39679;49.000;8.390;2022-10-17T04:54:16;2.22;;;1.80;;
37389;SDS011;39679;49.000;8.390;2022-10-17T04:59:17;2.47;;;1.50;;
37389;SDS011;39679;49.000;8.390;2022-10-17T05:04:17;2.75;;;1.60;;
37389;SDS011;39679;49.000;8.390;2022-10-17T05:09:17;3.22;;;1.55;;
37389;SDS011;39679;49.000;8.390;2022-10-17T05:14:18;2.95;;;1.50;;
37389;SDS011;39679;49.000;8.390;2022-10-17T05:19:18;1.88;;;1.50;;
37389;SDS011;39679;49.000;8.390;2022-10-17T05:24:18;1.52;;;1.42;;
37389;SDS011;39679;49.000;8.390;2022-10-17T05:29:19;2.08;;;1.30;;
37389;SDS011;39679;49.000;8.390;2022-10-17T05:34:19;3.10;;;1.63;;
37389;SDS011;39679;49.000;8.390;2022-10-17T05:39:19;2.50;;;1.83;;
37389;SDS011;39679;49.000;8.390;2022-10-17T05:44:20;1.80;;;1.50;;
37389;SDS011;39679;49.000;8.390;2022-10-17T05:49:20;2.00;;;1.67;;
37389;SDS011;39679;49.000;8.390;2022-10-17T05:54:20;1.52;;;1.38;;
37389;SDS011;39679;49.000;8.390;2022-10-17T05:59:22;2.92;;;1.42;;
37389;SDS011;39679;49.000;8.390;2022-10-17T06:04:24;1.75;;;1.60;;
37389;SDS011;39679;49.000;8.390;2022-10-17T06:09:24;2.60;;;1.90;;
37389;SDS011;39679;49.000;8.390;2022-10-17T06:14:25;2.17;;;1.60;;
37389;SDS011;39679;49.000;8.390;2022-10-17T06:19:25;2.27;;;1.40;;
37389;SDS011;39679;49.000;8.390;2022-10-17T06:24:26;2.00;;;1.60;;
37389;SDS011;39679;49.000;8.390;2022-10-17T06:29:26;2.47;;;1.60;;
37389;SDS011;39679;49.000;8.390;2022-10-17T06:34:26;2.07;;;1.50;;
37389;SDS011;39679;49.000;8.390;2022-10-17T06:39:27;1.37;;;1.27;;
37389;SDS011;39679;49.000;8.390;2022-10-17T06:44:27;1.90;;;1.30;;
37389;SDS011;39679;49.000;8.390;2022-10-17T06:49:27;2.90;;;1.80;;
37389;SDS011;39679;49.000;8.390;2022-10-17T06:54:28;2.97;;;1.60;;
37389;SDS011;39679;49.000;8.390;2022-10-17T06:59:28;1.83;;;1.38;;
37389;SDS011;39679;49.000;8.390;2022-10-17T07:04:28;1.88;;;1.30;;
37389;SDS011;39679;49.000;8.390;2022-10-17T07:09:29;1.48;;;1.30;;
37389;SDS011;39679;49.000;8.390;2022-10-17T07:14:30;3.13;;;1.55;;
37389;SDS011;39679;49.000;8.390;2022-10-17T07:19:30;1.63;;;1.40;;
37389;SDS011;39679;49.000;8.390;2022-10-17T07:24:31;3.53;;;1.63;;
37389;SDS011;39679;49.000;8.390;2022-10-17T07:29:31;2.03;;;1.50;;
37389;SDS011;39679;49.000;8.390;2022-10-17T07:34:32;1.48;;;1.35;;
37389;SDS011;39679;49.000;8.390;2022-10-17T07:39:32;2.33;;;1.55;;
37389;SDS011;39679;49.000;8.390;2022-10-17T07:44:32;1.90;;;1.48;;
37389;SDS011;39679;49.000;8.390;2022-10-17T07:49:33;1.50;;;1.40;;
37389;SDS011;39679;49.000;8.390;2022-10-17T07:54:33;1.52;;;1.42;;
37389;SDS011;39679;49.000;8.390;2022-10-17T07:59:34;1.52;;;1.42;;
37389;SDS011;39679;49.000;8.390;2022-10-17T08:04:35;1.38;;;1.27;;
37389;SDS011;39679;49.000;8.390;2022-10-17T08:09:36;1.43;;;1.30;;
37389;SDS011;39679;49.000;8.390;2022-10-17T08:14:36;1.50;;;1.37;;
37389;SDS011;39679;49.000;8.390;2022-10-17T08:19:37;3.47;;;1.40;;
37389;SDS011;39679;49.000;8.390;2022-10-17T08:24:38;2.85;;;1.60;;
37389;SDS011;39679;49.000;8.390;2022-10-17T08:29:39;1.83;;;1.57;;
37389;SDS011;39679;49.000;8.390;2022-10-17T08:34:39;1.52;;;1.40;;
37389;SDS011;39679;49.000;8.390;2022-10-17T08:39:40;1.65;;;1.50;;
37389;SDS011;39679;49.000;8.390;2022-10-17T08:49:55;1.67;;;1.50;;
37389;SDS011;39679;49.000;8.390;2022-10-17T08:54:59;2.17;;;1.38;;
37389;SDS011;39679;49.000;8.390;2022-10-17T08:59:59;1.88;;;1.65;;
37389;SDS011;39679;49.000;8.390;2022-10-17T09:10:47;1.63;;;1.42;;
37389;SDS011;39679;49.000;8.390;2022-10-17T09:21:19;2.83;;;1.58;;
37389;SDS011;39679;49.000;8.390;2022-10-17T09:26:39;1.73;;;1.20;;
37389;SDS011;39679;49.000;8.390;2022-10-17T09:31:41;1.85;;;1.45;;
37389;SDS011;39679;49.000;8.390;2022-10-17T09:41:50;2.03;;;1.40;;
37389;SDS011;39679;49.000;8.390;2022-10-17T09:52:02;2.75;;;1.38;;
37389;SDS011;39679;49.000;8.390;2022-10-17T09:57:05;1.90;;;1.40;;
37389;SDS011;39679;49.000;8.390;2022-10-17T10:02:17;1.50;;;1.40;;
37389;SDS011;39679;49.000;8.390;2022-10-17T10:07:20;1.83;;;1.40;;
37389;SDS011;39679;49.000;8.390;2022-10-17T10:17:37;2.00;;;1.30;;
37389;SDS011;39679;49.000;8.390;2022-10-17T10:22:40;1.50;;;1.40;;
37389;SDS011;39679;49.000;8.390;2022-10-17T10:27:42;3.33;;;1.90;;
37389;SDS011;39679;49.000;8.390;2022-10-17T10:32:45;1.40;;;1.30;;
37389;SDS011;39679;49.000;8.390;2022-10-17T10:37:52;2.15;;;1.60;;
37389;SDS011;39679;49.000;8.390;2022-10-17T10:42:55;2.15;;;1.45;;
37389;SDS011;39679;49.000;8.390;2022-10-17T10:48:19;1.92;;;1.60;;
37389;SDS011;39679;49.000;8.390;2022-10-17T10:54:02;1.65;;;1.55;;
37389;SDS011;39679;49.000;8.390;2022-10-17T10:59:23;1.88;;;1.50;;
37389;SDS011;39679;49.000;8.390;2022-10-17T11:04:46;1.42;;;1.33;;
37389;SDS011;39679;49.000;8.390;2022-10-17T11:09:53;1.80;;;1.50;;
37389;SDS011;39679;49.000;8.390;2022-10-17T11:20:23;2.45;;;1.48;;
37389;SDS011;39679;49.000;8.390;2022-10-17T11:25:33;1.88;;;1.50;;
37389;SDS011;39679;49.000;8.390;2022-10-17T11:30:41;1.60;;;1.48;;
37389;SDS011;39679;49.000;8.390;2022-10-17T11:35:46;2.92;;;1.50;;
37389;SDS011;39679;49.000;8.390;2022-10-17T11:45:54;3.67;;;1.30;;
37389;SDS011;39679;49.000;8.390;2022-10-17T11:51:00;1.20;;;1.10;;
37389;SDS011;39679;49.000;8.390;2022-10-17T11:56:08;3.03;;;1.27;;
37389;SDS011;39679;49.000;8.390;2022-10-17T12:06:45;1.85;;;1.48;;
37389;SDS011;39679;49.000;8.390;2022-10-17T12:16:54;1.80;;;1.40;;
37389;SDS011;39679;49.000;8.390;2022-10-17T12:21:59;1.48;;;1.20;;
37389;SDS011;39679;49.000;8.390;2022-10-17T12:27:47;1.20;;;1.10;;
37389;SDS011;39679;49.000;8.390;2022-10-17T12:32:38;1.60;;;1.40;;
37389;SDS011;39679;49.000;8.390;2022-10-17T12:38:14;1.20;;;1.10;;
37389;SDS011;39679;49.000;8.390;2022-10-17T12:53:41;1.92;;;1.10;;
37389;SDS011;39679;49.000;8.390;2022-10-17T12:58:47;1.35;;;1.10;;
37389;SDS011;39679;49.000;8.390;2022-10-17T13:03:49;1.27;;;1.17;;
37389;SDS011;39679;49.000;8.390;2022-10-17T13:08:53;1.40;;;1.30;;
37389;SDS011;39679;49.000;8.390;2022-10-17T13:14:01;1.17;;;1.08;;
37389;SDS011;39679;49.000;8.390;2022-10-17T13:19:12;1.30;;;1.20;;
37389;SDS011;39679;49.000;8.390;2022-10-17T13:29:22;1.40;;;1.20;;
37389;SDS011;39679;49.000;8.390;2022-10-17T13:34:24;1.30;;;1.20;;
37389;SDS011;39679;49.000;8.390;2022-10-17T13:39:26;1.30;;;1.20;;
37389;SDS011;39679;49.000;8.390;2022-10-17T13:44:32;0.90;;;0.90;;
37389;SDS011;39679;49.000;8.390;2022-10-17T13:49:40;1.42;;;1.10;;
37389;SDS011;39679;49.000;8.390;2022-10-17T13:54:43;1.10;;;1.00;;
37389;SDS011;39679;49.000;8.390;2022-10-17T13:59:45;1.95;;;1.45;;
37389;SDS011;39679;49.000;8.390;2022-10-17T14:10:20;1.23;;;1.10;;
37389;SDS011;39679;49.000;8.390;2022-10-17T14:15:24;2.92;;;1.30;;
37389;SDS011;39679;49.000;8.390;2022-10-17T14:20:27;1.67;;;1.48;;
37389;SDS011;39679;49.000;8.390;2022-10-17T14:25:32;1.52;;;1.35;;
37389;SDS011;39679;49.000;8.390;2022-10-17T14:30:46;1.13;;;1.02;;
37389;SDS011;39679;49.000;8.390;2022-10-17T14:35:49;1.98;;;1.23;;
37389;SDS011;39679;49.000;8.390;2022-10-17T14:41:00;0.80;;;0.80;;
37389;SDS011;39679;49.000;8.390;2022-10-17T14:46:04;1.27;;;1.00;;
37389;SDS011;39679;49.000;8.390;2022-10-17T14:51:12;1.25;;;1.15;;
37389;SDS011;39679;49.000;8.390;2022-10-17T14:56:24;1.27;;;1.02;;
37389;SDS011;39679;49.000;8.390;2022-10-17T15:01:26;1.20;;;1.10;;
37389;SDS011;39679;49.000;8.390;2022-10-17T15:06:28;1.02;;;1.00;;
37389;SDS011;39679;49.000;8.390;2022-10-17T15:11:31;1.60;;;1.20;;
37389;SDS011;39679;49.000;8.390;2022-10-17T15:16:34;1.85;;;1.30;;
37389;SDS011;39679;49.000;8.390;2022-10-17T15:21:34;1.20;;;1.10;;
37389;SDS011;39679;49.000;8.390;2022-10-17T15:26:34;1.70;;;1.20;;
37389;SDS011;39679;49.000;8.390;2022-10-17T15:31:35;1.27;;;1.17;;
37389;SDS011;39679;49.000;8.390;2022-10-17T15:36:38;1.45;;;1.35;;
37389;SDS011;39679;49.000;8.390;2022-10-17T15:41:40;1.03;;;1.00;;
37389;SDS011;39679;49.000;8.390;2022-10-17T15:46:40;1.27;;;1.15;;
37389;SDS011;39679;49.000;8.390;2022-10-17T15:51:41;1.27;;;1.17;;
37389;SDS011;39679;49.000;8.390;2022-10-17T15:56:42;1.13;;;1.02;;
37389;SDS011;39679;49.000;8.390;2022-10-17T16:01:47;3.30;;;1.63;;
37389;SDS011;39679;49.000;8.390;2022-10-17T16:06:47;2.72;;;1.50;;
37389;SDS011;39679;49.000;8.390;2022-10-17T16:11:48;3.28;;;1.42;;
37389;SDS011;39679;49.000;8.390;2022-10-17T16:16:48;2.25;;;1.45;;
37389;SDS011;39679;49.000;8.390;2022-10-17T16:21:48;1.40;;;1.30;;
37389;SDS011;39679;49.000;8.390;2022-10-17T16:26:49;2.80;;;1.80;;
37389;SDS011;39679;49.000;8.390;2022-10-17T16:31:50;1.20;;;1.10;;
37389;SDS011;39679;49.000;8.390;2022-10-17T16:36:50;1.83;;;1.30;;
37389;SDS011;39679;49.000;8.390;2022-10-17T16:41:50;2.13;;;1.37;;
37389;SDS011;39679;49.000;8.390;2022-10-17T16:46:51;1.23;;;1.07;;
37389;SDS011;39679;49.000;8.390;2022-10-17T16:51:51;1.90;;;1.50;;
37389;SDS011;39679;49.000;8.390;2022-10-17T16:56:51;1.67;;;1.45;;
37389;SDS011;39679;49.000;8.390;2022-10-17T17:01:52;2.53;;;1.30;;
37389;SDS011;39679;49.000;8.390;2022-10-17T17:06:52;5.10;;;1.90;;
37389;SDS011;39679;49.000;8.390;2022-10-17T17:11:53;5.80;;;2.40;;
37389;SDS011;39679;49.000;8.390;2022-10-17T17:16:53;3.65;;;2.08;;
37389;SDS011;39679;49.000;8.390;2022-10-17T17:21:53;3.37;;;1.80;;
37389;SDS011;39679;49.000;8.390;2022-10-17T17:26:54;3.13;;;1.90;;
37389;SDS011;39679;49.000;8.390;2022-10-17T17:31:55;5.03;;;2.13;;
37389;SDS011;39679;49.000;8.390;2022-10-17T17:36:56;3.43;;;1.90;;
37389;SDS011;39679;49.000;8.390;2022-10-17T17:41:56;3.23;;;1.73;;
37389;SDS011;39679;49.000;8.390;2022-10-17T17:46:56;3.43;;;1.83;;
37389;SDS011;39679;49.000;8.390;2022-10-17T17:51:56;3.37;;;1.67;;
37389;SDS011;39679;49.000;8.390;2022-10-17T17:56:57;3.55;;;1.90;;
37389;SDS011;39679;49.000;8.390;2022-10-17T18:01:57;4.57;;;1.80;;
37389;SDS011;39679;49.000;8.390;2022-10-17T18:06:58;5.13;;;2.00;;
37389;SDS011;39679;49.000;8.390;2022-10-17T18:11:58;3.47;;;2.00;;
37389;SDS011;39679;49.000;8.390;2022-10-17T18:16:58;3.83;;;2.13;;
37389;SDS011;39679;49.000;8.390;2022-10-17T18:21:59;5.82;;;1.92;;
37389;SDS011;39679;49.000;8.390;2022-10-17T18:26:59;4.32;;;2.42;;
37389;SDS011;39679;49.000;8.390;2022-10-17T18:31:59;6.10;;;1.95;;
37389;SDS011;39679;49.000;8.390;2022-10-17T18:37:00;2.40;;;2.00;;
37389;SDS011;39679;49.000;8.390;2022-10-17T18:42:00;2.88;;;1.58;;
37389;SDS011;39679;49.000;8.390;2022-10-17T18:47:00;4.20;;;1.92;;
37389;SDS011;39679;49.000;8.390;2022-10-17T18:52:01;3.85;;;2.03;;
37389;SDS011;39679;49.000;8.390;2022-10-17T18:57:01;3.80;;;1.83;;
37389;SDS011;39679;49.000;8.390;2022-10-17T19:02:02;3.13;;;1.75;;
37389;SDS011;39679;49.000;8.390;2022-10-17T19:07:02;3.78;;;2.13;;
37389;SDS011;39679;49.000;8.390;2022-10-17T19:12:02;3.92;;;2.10;;
37389;SDS011;39679;49.000;8.390;2022-10-17T19:17:03;2.67;;;1.83;;
37389;SDS011;39679;49.000;8.390;2022-10-17T19:22:03;4.10;;;1.92;;
37389;SDS011;39679;49.000;8.390;2022-10-17T19:27:04;4.40;;;1.93;;
37389;SDS011;39679;49.000;8.390;2022-10-17T19:32:04;3.25;;;2.30;;
37389;SDS011;39679;49.000;8.390;2022-10-17T19:37:04;3.33;;;1.83;;
37389;SDS011;39679;49.000;8.390;2022-10-17T19:42:05;3.15;;;1.85;;
37389;SDS011;39679;49.000;8.390;2022-10-17T19:47:05;2.55;;;1.70;;
37389;SDS011;39679;49.000;8.390;2022-10-17T19:52:05;2.70;;;1.90;;
37389;SDS011;39679;49.000;8.390;2022-10-17T19:57:06;3.75;;;2.00;;
37389;SDS011;39679;49.000;8.390;2022-10-17T20:02:06;2.20;;;1.65;;
37389;SDS011;39679;49.000;8.390;2022-10-17T20:07:06;5.07;;;2.03;;
37389;SDS011;39679;49.000;8.390;2022-10-17T20:12:07;4.72;;;1.80;;
37389;SDS011;39679;49.000;8.390;2022-10-17T20:17:07;2.40;;;1.70;;
37389;SDS011;39679;49.000;8.390;2022-10-17T20:22:07;2.40;;;1.70;;
37389;SDS011;39679;49.000;8.390;2022-10-17T20:27:08;4.38;;;2.17;;
37389;SDS011;39679;49.000;8.390;2022-10-17T20:32:09;6.03;;;2.42;;
37389;SDS011;39679;49.000;8.390;2022-10-17T20:37:09;8.63;;;2.95;;
37389;SDS011;39679;49.000;8.390;2022-10-17T20:42:09;6.83;;;3.00;;
37389;SDS011;39679;49.000;8.390;2022-10-17T20:47:10;7.17;;;3.50;;
37389;SDS011;39679;49.000;8.390;2022-10-17T20:52:10;5.43;;;3.40;;
37389;SDS011;39679;49.000;8.390;2022-10-17T20:57:11;5.10;;;2.95;;
37389;SDS011;39679;49.000;8.390;2022-10-17T21:02:11;5.70;;;2.97;;
37389;SDS011;39679;49.000;8.390;2022-10-17T21:07:12;5.72;;;3.17;;
37389;SDS011;39679;49.000;8.390;2022-10-17T21:12:12;6.05;;;3.33;;
37389;SDS011;39679;49.000;8.390;2022-10-17T21:17:13;4.80;;;3.03;;
37389;SDS011;39679;49.000;8.390;2022-10-17T21:22:13;5.13;;;3.22;;
37389;SDS011;39679;49.000;8.390;2022-10-17T21:27:15;4.03;;;3.17;;
37389;SDS011;39679;49.000;8.390;2022-10-17T21:32:16;7.72;;;2.63;;
37389;SDS011;39679;49.000;8.390;2022-10-17T21:37:17;4.20;;;2.70;;
37389;SDS011;39679;49.000;8.390;2022-10-17T21:42:17;6.50;;;2.47;;
37389;SDS011;39679;49.000;8.390;2022-10-17T21:47:17;3.53;;;2.57;;
37389;SDS011;39679;49.000;8.390;2022-10-17T21:52:18;3.10;;;2.50;;
37389;SDS011;39679;49.000;8.390;2022-10-17T21:57:18;5.87;;;2.70;;
37389;SDS011;39679;49.000;8.390;2022-10-17T22:02:18;5.33;;;2.80;;
37389;SDS011;39679;49.000;8.390;2022-10-17T22:07:19;4.80;;;2.47;;
37389;SDS011;39679;49.000;8.390;2022-10-17T22:12:19;3.77;;;2.70;;
37389;SDS011;39679;49.000;8.390;2022-10-17T22:17:19;6.03;;;2.97;;
37389;SDS011;39679;49.000;8.390;2022-10-17T22:22:20;5.10;;;2.25;;
37389;SDS011;39679;49.000;8.390;2022-10-17T22:27:20;4.75;;;2.67;;
37389;SDS011;39679;49.000;8.390;2022-10-17T22:32:20;5.03;;;2.53;;
37389;SDS011;39679;49.000;8.390;2022-10-17T22:37:21;4.10;;;2.38;;
37389;SDS011;39679;49.000;8.390;2022-10-17T22:42:21;5.70;;;2.50;;
37389;SDS011;39679;49.000;8.390;2022-10-17T22:47:21;4.32;;;2.40;;
37389;SDS011;39679;49.000;8.390;2022-10-17T22:52:22;2.80;;;2.22;;
37389;SDS011;39679;49.000;8.390;2022-10-17T22:57:22;5.30;;;2.65;;
37389;SDS011;39679;49.000;8.390;2022-10-17T23:02:23;3.67;;;2.27;;
37389;SDS011;39679;49.000;8.390;2022-10-17T23:07:23;3.50;;;2.35;;
37389;SDS011;39679;49.000;8.390;2022-10-17T23:12:24;4.00;;;2.35;;
37389;SDS011;39679;49.000;8.390;2022-10-17T23:17:24;2.70;;;1.92;;
37389;SDS011;39679;49.000;8.390;2022-10-17T23:22:25;4.27;;;2.40;;
37389;SDS011;39679;49.000;8.390;2022-10-17T23:27:25;2.50;;;2.07;;
37389;SDS011;39679;49.000;8.390;2022-10-17T23:32:25;4.60;;;2.70;;
37389;SDS011;39679;49.000;8.390;2022-10-17T23:37:26;3.80;;;2.45;;
37389;SDS011;39679;49.000;8.390;2022-10-17T23:42:26;4.30;;;2.60;;
37389;SDS011;39679;49.000;8.390;2022-10-17T23:47:27;3.15;;;2.05;;
37389;SDS011;39679;49.000;8.390;2022-10-17T23:52:27;3.97;;;2.40;;
37389;SDS011;39679;49.000;8.390;2022-10-17T23:57:27;3.07;;;2.53;;
